sensor_id;sensor_type;location;lat;lon;timestamp;temperature;humidity
41630;DHT22;27322;49.488;8.480;2022-12-20T00:02:09;5.10;99.90
41630;DHT22;27322;49.488;8.480;2022-12-20T00:04:35;5.00;99.90
41630;DHT22;27322;49.488;8.480;2022-12-20T00:07:00;5.10;99.90
41630;DHT22;27322;49.488;8.480;2022-12-20T00:09:26;5.10;99.90
41630;DHT22;27322;49.488;8.480;2022-12-20T00:11:52;5.10;99.90
41630;DHT22;27322;49.488;8.480;2022-12-20T00:14:17;5.10;99.90
41630;DHT22;27322;49.488;8.480;2022-12-20T00:16:43;5.10;99.90
41630;DHT22;27322;49.488;8.480;2022-12-20T00:19:10;5.10;99.90
41630;DHT22;27322;49.488;8.480;2022-12-20T00:21:36;5.10;99.90
41630;DHT22;27322;49.488;8.480;2022-12-20T00:24:03;5.10;99.90
41630;DHT22;27322;49.488;8.480;2022-12-20T00:26:31;5.10;99.90
41630;DHT22;27322;49.488;8.480;2022-12-20T00:28:57;5.10;99.90
41630;DHT22;27322;49.488;8.480;2022-12-20T00:31:25;5.10;99.90
41630;DHT22;27322;49.488;8.480;2022-12-20T00:33:53;5.10;99.90
41630;DHT22;27322;49.488;8.480;2022-12-20T00:36:19;5.20;99.90
41630;DHT22;27322;49.488;8.480;2022-12-20T00:38:46;5.20;99.90
41630;DHT22;27322;49.488;8.480;2022-12-20T00:41:14;5.20;99.90
41630;DHT22;27322;49.488;8.480;2022-12-20T00:43:41;5.20;99.90
41630;DHT22;27322;49.488;8.480;2022-12-20T00:46:08;5.20;99.90
41630;DHT22;27322;49.488;8.480;2022-12-20T00:48:35;5.20;99.90
41630;DHT22;27322;49.488;8.480;2022-12-20T00:51:06;5.20;99.90
41630;DHT22;27322;49.488;8.480;2022-12-20T00:53:33;5.20;99.90
41630;DHT22;27322;49.488;8.480;2022-12-20T00:55:58;5.20;99.90
41630;DHT22;27322;49.488;8.480;2022-12-20T00:58:25;5.30;99.90
41630;DHT22;27322;49.488;8.480;2022-12-20T01:00:51;5.20;99.90
41630;DHT22;27322;49.488;8.480;2022-12-20T01:03:17;5.20;99.90
41630;DHT22;27322;49.488;8.480;2022-12-20T01:05:51;5.20;99.90
41630;DHT22;27322;49.488;8.480;2022-12-20T01:08:17;5.20;99.90
41630;DHT22;27322;49.488;8.480;2022-12-20T01:10:43;5.20;99.90
41630;DHT22;27322;49.488;8.480;2022-12-20T01:13:09;5.20;99.90
41630;DHT22;27322;49.488;8.480;2022-12-20T01:15:35;5.20;99.90
41630;DHT22;27322;49.488;8.480;2022-12-20T01:18:00;5.20;99.90
41630;DHT22;27322;49.488;8.480;2022-12-20T01:20:26;5.20;99.90
41630;DHT22;27322;49.488;8.480;2022-12-20T01:22:51;5.10;99.90
41630;DHT22;27322;49.488;8.480;2022-12-20T01:25:17;5.10;99.90
41630;DHT22;27322;49.488;8.480;2022-12-20T01:27:43;5.10;99.90
41630;DHT22;27322;49.488;8.480;2022-12-20T01:30:09;5.10;99.90
41630;DHT22;27322;49.488;8.480;2022-12-20T01:32:35;5.10;99.90
41630;DHT22;27322;49.488;8.480;2022-12-20T01:35:00;5.00;99.90
41630;DHT22;27322;49.488;8.480;2022-12-20T01:37:26;5.00;99.90
41630;DHT22;27322;49.488;8.480;2022-12-20T01:39:51;5.00;99.90
41630;DHT22;27322;49.488;8.480;2022-12-20T01:42:17;5.00;99.90
41630;DHT22;27322;49.488;8.480;2022-12-20T01:47:09;5.00;99.90
41630;DHT22;27322;49.488;8.480;2022-12-20T01:49:39;5.10;99.90
41630;DHT22;27322;49.488;8.480;2022-12-20T01:52:17;5.10;99.90
41630;DHT22;27322;49.488;8.480;2022-12-20T01:54:54;5.10;99.90
41630;DHT22;27322;49.488;8.480;2022-12-20T01:57:24;5.10;99.90
41630;DHT22;27322;49.488;8.480;2022-12-20T01:59:52;5.10;99.90
41630;DHT22;27322;49.488;8.480;2022-12-20T02:02:19;5.10;99.90
41630;DHT22;27322;49.488;8.480;2022-12-20T02:04:45;5.00;99.90
41630;DHT22;27322;49.488;8.480;2022-12-20T02:07:17;5.10;99.90
41630;DHT22;27322;49.488;8.480;2022-12-20T02:09:43;5.10;99.90
41630;DHT22;27322;49.488;8.480;2022-12-20T02:12:16;5.00;99.90
41630;DHT22;27322;49.488;8.480;2022-12-20T02:29:11;5.00;99.90
41630;DHT22;27322;49.488;8.480;2022-12-20T02:34:34;5.00;99.90
41630;DHT22;27322;49.488;8.480;2022-12-20T02:37:01;5.00;99.90
41630;DHT22;27322;49.488;8.480;2022-12-20T02:39:28;5.00;99.90
41630;DHT22;27322;49.488;8.480;2022-12-20T02:42:04;5.00;99.90
41630;DHT22;27322;49.488;8.480;2022-12-20T02:44:32;5.00;99.90
41630;DHT22;27322;49.488;8.480;2022-12-20T02:47:55;5.00;99.90
41630;DHT22;27322;49.488;8.480;2022-12-20T02:50:21;4.90;99.90
41630;DHT22;27322;49.488;8.480;2022-12-20T02:52:49;5.00;99.90
41630;DHT22;27322;49.488;8.480;2022-12-20T02:55:15;4.90;99.90
41630;DHT22;27322;49.488;8.480;2022-12-20T02:57:45;5.00;99.90
41630;DHT22;27322;49.488;8.480;2022-12-20T03:00:18;5.00;99.90
41630;DHT22;27322;49.488;8.480;2022-12-20T03:02:46;5.00;99.90
41630;DHT22;27322;49.488;8.480;2022-12-20T03:05:33;5.00;99.90
41630;DHT22;27322;49.488;8.480;2022-12-20T03:07:59;5.10;99.90
41630;DHT22;27322;49.488;8.480;2022-12-20T03:10:25;5.10;99.90
41630;DHT22;27322;49.488;8.480;2022-12-20T03:12:51;5.10;99.90
41630;DHT22;27322;49.488;8.480;2022-12-20T03:15:16;5.10;99.90
41630;DHT22;27322;49.488;8.480;2022-12-20T03:17:42;5.10;99.90
41630;DHT22;27322;49.488;8.480;2022-12-20T03:20:08;5.10;99.90
41630;DHT22;27322;49.488;8.480;2022-12-20T03:22:36;5.10;99.90
41630;DHT22;27322;49.488;8.480;2022-12-20T03:25:02;5.10;99.90
41630;DHT22;27322;49.488;8.480;2022-12-20T03:27:27;5.10;99.90
41630;DHT22;27322;49.488;8.480;2022-12-20T03:29:54;5.20;99.90
41630;DHT22;27322;49.488;8.480;2022-12-20T03:32:20;5.10;99.90
41630;DHT22;27322;49.488;8.480;2022-12-20T03:34:46;5.10;99.90
41630;DHT22;27322;49.488;8.480;2022-12-20T03:37:12;5.10;99.90
41630;DHT22;27322;49.488;8.480;2022-12-20T03:39:37;5.10;99.90
41630;DHT22;27322;49.488;8.480;2022-12-20T03:42:03;5.20;99.90
41630;DHT22;27322;49.488;8.480;2022-12-20T03:44:29;5.20;99.90
41630;DHT22;27322;49.488;8.480;2022-12-20T03:46:54;5.20;99.90
41630;DHT22;27322;49.488;8.480;2022-12-20T03:49:20;5.20;99.90
41630;DHT22;27322;49.488;8.480;2022-12-20T03:51:45;5.30;99.90
41630;DHT22;27322;49.488;8.480;2022-12-20T03:54:11;5.30;99.90
41630;DHT22;27322;49.488;8.480;2022-12-20T03:56:36;5.30;99.90
41630;DHT22;27322;49.488;8.480;2022-12-20T03:59:02;5.40;99.90
41630;DHT22;27322;49.488;8.480;2022-12-20T04:01:28;5.50;99.90
41630;DHT22;27322;49.488;8.480;2022-12-20T04:03:55;5.60;99.90
41630;DHT22;27322;49.488;8.480;2022-12-20T04:06:21;5.70;99.90
41630;DHT22;27322;49.488;8.480;2022-12-20T04:08:48;5.80;99.90
41630;DHT22;27322;49.488;8.480;2022-12-20T04:11:13;5.80;99.90
41630;DHT22;27322;49.488;8.480;2022-12-20T04:13:52;5.90;99.90
41630;DHT22;27322;49.488;8.480;2022-12-20T04:16:22;6.00;99.90
41630;DHT22;27322;49.488;8.480;2022-12-20T04:18:47;6.10;99.90
41630;DHT22;27322;49.488;8.480;2022-12-20T04:21:14;6.20;99.90
41630;DHT22;27322;49.488;8.480;2022-12-20T04:23:41;6.30;99.90
41630;DHT22;27322;49.488;8.480;2022-12-20T04:26:08;6.40;99.90
41630;DHT22;27322;49.488;8.480;2022-12-20T04:28:34;6.40;99.90
41630;DHT22;27322;49.488;8.480;2022-12-20T04:31:00;6.40;99.90
41630;DHT22;27322;49.488;8.480;2022-12-20T04:33:27;6.40;99.90
41630;DHT22;27322;49.488;8.480;2022-12-20T04:35:53;6.40;99.90
41630;DHT22;27322;49.488;8.480;2022-12-20T04:38:19;6.40;99.90
41630;DHT22;27322;49.488;8.480;2022-12-20T04:40:48;6.40;99.90
41630;DHT22;27322;49.488;8.480;2022-12-20T04:43:14;6.40;99.90
41630;DHT22;27322;49.488;8.480;2022-12-20T04:45:40;6.40;99.90
41630;DHT22;27322;49.488;8.480;2022-12-20T04:48:05;6.40;99.90
41630;DHT22;27322;49.488;8.480;2022-12-20T04:50:31;6.40;99.90
41630;DHT22;27322;49.488;8.480;2022-12-20T04:52:57;6.40;99.90
41630;DHT22;27322;49.488;8.480;2022-12-20T04:55:41;6.40;99.90
41630;DHT22;27322;49.488;8.480;2022-12-20T04:58:07;6.40;99.90
41630;DHT22;27322;49.488;8.480;2022-12-20T05:00:33;6.40;99.90
41630;DHT22;27322;49.488;8.480;2022-12-20T05:02:59;6.40;99.90
41630;DHT22;27322;49.488;8.480;2022-12-20T05:05:25;6.40;99.90
41630;DHT22;27322;49.488;8.480;2022-12-20T05:07:51;6.40;99.90
41630;DHT22;27322;49.488;8.480;2022-12-20T05:10:18;6.40;99.90
41630;DHT22;27322;49.488;8.480;2022-12-20T05:12:43;6.40;99.90
41630;DHT22;27322;49.488;8.480;2022-12-20T05:15:10;6.40;99.90
41630;DHT22;27322;49.488;8.480;2022-12-20T05:17:36;6.40;99.90
41630;DHT22;27322;49.488;8.480;2022-12-20T05:20:02;6.50;99.90
41630;DHT22;27322;49.488;8.480;2022-12-20T05:22:28;6.50;99.90
41630;DHT22;27322;49.488;8.480;2022-12-20T05:25:15;6.50;99.90
41630;DHT22;27322;49.488;8.480;2022-12-20T05:27:59;6.40;99.90
41630;DHT22;27322;49.488;8.480;2022-12-20T05:30:25;6.50;99.90
41630;DHT22;27322;49.488;8.480;2022-12-20T05:32:51;6.50;99.90
41630;DHT22;27322;49.488;8.480;2022-12-20T05:35:17;6.50;99.90
41630;DHT22;27322;49.488;8.480;2022-12-20T05:37:42;6.50;99.90
41630;DHT22;27322;49.488;8.480;2022-12-20T05:40:08;6.50;99.90
41630;DHT22;27322;49.488;8.480;2022-12-20T05:42:34;6.50;99.90
41630;DHT22;27322;49.488;8.480;2022-12-20T05:45:00;6.50;99.90
41630;DHT22;27322;49.488;8.480;2022-12-20T05:47:26;6.60;99.90
41630;DHT22;27322;49.488;8.480;2022-12-20T05:49:52;6.50;99.90
41630;DHT22;27322;49.488;8.480;2022-12-20T05:52:17;6.60;99.90
41630;DHT22;27322;49.488;8.480;2022-12-20T05:54:43;6.60;99.90
41630;DHT22;27322;49.488;8.480;2022-12-20T05:57:08;6.70;99.90
41630;DHT22;27322;49.488;8.480;2022-12-20T05:59:34;6.70;99.90
41630;DHT22;27322;49.488;8.480;2022-12-20T06:02:00;6.70;99.90
41630;DHT22;27322;49.488;8.480;2022-12-20T06:04:25;6.80;99.90
41630;DHT22;27322;49.488;8.480;2022-12-20T06:06:51;6.80;99.90
41630;DHT22;27322;49.488;8.480;2022-12-20T06:09:17;6.80;99.90
41630;DHT22;27322;49.488;8.480;2022-12-20T06:11:43;6.80;99.90
41630;DHT22;27322;49.488;8.480;2022-12-20T06:14:08;6.80;99.90
41630;DHT22;27322;49.488;8.480;2022-12-20T06:16:34;6.80;99.90
41630;DHT22;27322;49.488;8.480;2022-12-20T06:19:00;6.80;99.90
41630;DHT22;27322;49.488;8.480;2022-12-20T06:21:26;6.80;99.90
41630;DHT22;27322;49.488;8.480;2022-12-20T06:23:53;6.80;99.90
41630;DHT22;27322;49.488;8.480;2022-12-20T06:26:19;6.80;99.90
41630;DHT22;27322;49.488;8.480;2022-12-20T06:28:47;6.80;99.90
41630;DHT22;27322;49.488;8.480;2022-12-20T06:31:17;6.80;99.90
41630;DHT22;27322;49.488;8.480;2022-12-20T06:33:42;6.80;99.90
41630;DHT22;27322;49.488;8.480;2022-12-20T06:36:08;6.80;99.90
41630;DHT22;27322;49.488;8.480;2022-12-20T06:38:34;6.80;99.90
41630;DHT22;27322;49.488;8.480;2022-12-20T06:40:59;6.80;99.90
41630;DHT22;27322;49.488;8.480;2022-12-20T06:43:25;6.80;99.90
41630;DHT22;27322;49.488;8.480;2022-12-20T06:45:50;6.80;99.90
41630;DHT22;27322;49.488;8.480;2022-12-20T06:48:16;6.80;99.90
41630;DHT22;27322;49.488;8.480;2022-12-20T06:50:42;6.90;99.90
41630;DHT22;27322;49.488;8.480;2022-12-20T06:53:07;6.90;99.90
41630;DHT22;27322;49.488;8.480;2022-12-20T06:55:33;6.90;99.90
41630;DHT22;27322;49.488;8.480;2022-12-20T06:57:58;7.00;99.90
41630;DHT22;27322;49.488;8.480;2022-12-20T07:00:24;7.00;99.90
41630;DHT22;27322;49.488;8.480;2022-12-20T07:02:49;6.90;99.90
41630;DHT22;27322;49.488;8.480;2022-12-20T07:05:15;7.00;99.90
41630;DHT22;27322;49.488;8.480;2022-12-20T07:07:41;7.00;99.90
41630;DHT22;27322;49.488;8.480;2022-12-20T07:10:07;7.00;99.90
41630;DHT22;27322;49.488;8.480;2022-12-20T07:12:33;7.00;99.90
41630;DHT22;27322;49.488;8.480;2022-12-20T07:14:58;7.00;99.90
41630;DHT22;27322;49.488;8.480;2022-12-20T07:17:24;7.00;99.90
41630;DHT22;27322;49.488;8.480;2022-12-20T07:19:50;7.00;99.90
41630;DHT22;27322;49.488;8.480;2022-12-20T07:22:15;7.00;99.90
41630;DHT22;27322;49.488;8.480;2022-12-20T07:24:41;7.00;99.90
41630;DHT22;27322;49.488;8.480;2022-12-20T07:27:07;7.00;99.90
41630;DHT22;27322;49.488;8.480;2022-12-20T07:29:32;7.10;99.90
41630;DHT22;27322;49.488;8.480;2022-12-20T07:31:58;7.10;99.90
41630;DHT22;27322;49.488;8.480;2022-12-20T07:34:24;7.20;99.90
41630;DHT22;27322;49.488;8.480;2022-12-20T07:36:50;7.20;99.90
41630;DHT22;27322;49.488;8.480;2022-12-20T07:39:15;7.20;99.90
41630;DHT22;27322;49.488;8.480;2022-12-20T07:41:41;7.20;99.90
41630;DHT22;27322;49.488;8.480;2022-12-20T07:44:06;7.20;99.90
41630;DHT22;27322;49.488;8.480;2022-12-20T07:46:32;7.20;99.90
41630;DHT22;27322;49.488;8.480;2022-12-20T07:48:58;7.20;99.90
41630;DHT22;27322;49.488;8.480;2022-12-20T07:51:27;7.20;99.90
41630;DHT22;27322;49.488;8.480;2022-12-20T07:53:59;7.30;99.90
41630;DHT22;27322;49.488;8.480;2022-12-20T07:56:26;7.30;99.90
41630;DHT22;27322;49.488;8.480;2022-12-20T07:58:54;7.30;99.90
41630;DHT22;27322;49.488;8.480;2022-12-20T08:01:26;7.20;99.90
41630;DHT22;27322;49.488;8.480;2022-12-20T08:04:07;7.20;99.90
41630;DHT22;27322;49.488;8.480;2022-12-20T08:06:35;7.20;99.90
41630;DHT22;27322;49.488;8.480;2022-12-20T08:09:03;7.30;99.90
41630;DHT22;27322;49.488;8.480;2022-12-20T08:11:30;7.20;99.90
41630;DHT22;27322;49.488;8.480;2022-12-20T08:13:57;7.20;99.90
41630;DHT22;27322;49.488;8.480;2022-12-20T08:16:23;7.30;99.90
41630;DHT22;27322;49.488;8.480;2022-12-20T08:18:48;7.30;99.90
41630;DHT22;27322;49.488;8.480;2022-12-20T08:21:14;7.30;99.90
41630;DHT22;27322;49.488;8.480;2022-12-20T08:23:40;7.30;99.90
41630;DHT22;27322;49.488;8.480;2022-12-20T08:26:06;7.20;99.90
41630;DHT22;27322;49.488;8.480;2022-12-20T08:28:31;7.20;99.90
41630;DHT22;27322;49.488;8.480;2022-12-20T08:31:05;7.30;99.90
41630;DHT22;27322;49.488;8.480;2022-12-20T08:33:32;7.30;99.90
41630;DHT22;27322;49.488;8.480;2022-12-20T08:36:03;7.30;99.90
41630;DHT22;27322;49.488;8.480;2022-12-20T08:38:29;7.30;99.90
41630;DHT22;27322;49.488;8.480;2022-12-20T08:41:08;7.30;99.90
41630;DHT22;27322;49.488;8.480;2022-12-20T08:43:35;7.40;99.90
41630;DHT22;27322;49.488;8.480;2022-12-20T08:46:01;7.40;99.90
41630;DHT22;27322;49.488;8.480;2022-12-20T08:48:27;7.40;99.90
41630;DHT22;27322;49.488;8.480;2022-12-20T08:50:58;7.40;99.90
41630;DHT22;27322;49.488;8.480;2022-12-20T08:53:25;7.50;99.90
41630;DHT22;27322;49.488;8.480;2022-12-20T08:55:52;7.50;99.90
41630;DHT22;27322;49.488;8.480;2022-12-20T08:58:18;7.50;99.90
41630;DHT22;27322;49.488;8.480;2022-12-20T09:00:44;7.50;99.90
41630;DHT22;27322;49.488;8.480;2022-12-20T09:03:11;7.60;99.90
41630;DHT22;27322;49.488;8.480;2022-12-20T09:05:47;7.60;99.90
41630;DHT22;27322;49.488;8.480;2022-12-20T09:08:14;7.60;99.90
41630;DHT22;27322;49.488;8.480;2022-12-20T09:10:40;7.60;99.90
41630;DHT22;27322;49.488;8.480;2022-12-20T09:13:06;7.60;99.90
41630;DHT22;27322;49.488;8.480;2022-12-20T09:15:35;7.60;99.90
41630;DHT22;27322;49.488;8.480;2022-12-20T09:18:02;7.60;99.90
41630;DHT22;27322;49.488;8.480;2022-12-20T09:20:28;7.70;99.90
41630;DHT22;27322;49.488;8.480;2022-12-20T09:22:54;7.70;99.90
41630;DHT22;27322;49.488;8.480;2022-12-20T09:25:19;7.70;99.90
41630;DHT22;27322;49.488;8.480;2022-12-20T09:27:45;7.70;99.90
41630;DHT22;27322;49.488;8.480;2022-12-20T09:30:11;7.70;99.90
41630;DHT22;27322;49.488;8.480;2022-12-20T09:32:36;7.80;99.90
41630;DHT22;27322;49.488;8.480;2022-12-20T09:35:03;7.70;99.90
41630;DHT22;27322;49.488;8.480;2022-12-20T09:37:30;7.80;99.90
41630;DHT22;27322;49.488;8.480;2022-12-20T09:39:56;7.80;99.90
41630;DHT22;27322;49.488;8.480;2022-12-20T09:42:25;7.80;99.90
41630;DHT22;27322;49.488;8.480;2022-12-20T09:44:51;7.80;99.90
41630;DHT22;27322;49.488;8.480;2022-12-20T09:47:22;7.80;99.90
41630;DHT22;27322;49.488;8.480;2022-12-20T09:49:53;7.80;99.90
41630;DHT22;27322;49.488;8.480;2022-12-20T10:00:49;8.00;99.90
41630;DHT22;27322;49.488;8.480;2022-12-20T10:03:25;8.00;99.90
41630;DHT22;27322;49.488;8.480;2022-12-20T10:05:59;8.00;99.90
41630;DHT22;27322;49.488;8.480;2022-12-20T10:08:41;8.00;99.90
41630;DHT22;27322;49.488;8.480;2022-12-20T10:17:04;8.10;99.90
41630;DHT22;27322;49.488;8.480;2022-12-20T10:22:19;8.20;99.90
41630;DHT22;27322;49.488;8.480;2022-12-20T10:25:00;8.20;99.90
41630;DHT22;27322;49.488;8.480;2022-12-20T10:27:27;8.20;99.90
41630;DHT22;27322;49.488;8.480;2022-12-20T10:29:53;8.20;99.90
41630;DHT22;27322;49.488;8.480;2022-12-20T10:32:21;8.20;99.90
41630;DHT22;27322;49.488;8.480;2022-12-20T10:37:22;8.20;99.90
41630;DHT22;27322;49.488;8.480;2022-12-20T10:39:50;8.20;99.90
41630;DHT22;27322;49.488;8.480;2022-12-20T10:42:34;8.20;99.90
41630;DHT22;27322;49.488;8.480;2022-12-20T10:45:02;8.30;99.90
41630;DHT22;27322;49.488;8.480;2022-12-20T10:52:41;8.30;99.90
41630;DHT22;27322;49.488;8.480;2022-12-20T10:55:34;8.30;99.90
41630;DHT22;27322;49.488;8.480;2022-12-20T10:58:05;8.30;99.90
41630;DHT22;27322;49.488;8.480;2022-12-20T11:00:32;8.30;99.90
41630;DHT22;27322;49.488;8.480;2022-12-20T11:03:21;8.40;99.90
41630;DHT22;27322;49.488;8.480;2022-12-20T11:05:59;8.40;99.90
41630;DHT22;27322;49.488;8.480;2022-12-20T11:08:27;8.40;99.90
41630;DHT22;27322;49.488;8.480;2022-12-20T11:13:41;8.40;99.90
41630;DHT22;27322;49.488;8.480;2022-12-20T11:16:33;8.40;99.90
41630;DHT22;27322;49.488;8.480;2022-12-20T11:22:21;8.50;99.90
41630;DHT22;27322;49.488;8.480;2022-12-20T11:25:05;8.40;99.90
41630;DHT22;27322;49.488;8.480;2022-12-20T11:28:04;8.50;99.90
41630;DHT22;27322;49.488;8.480;2022-12-20T11:40:19;8.40;99.90
41630;DHT22;27322;49.488;8.480;2022-12-20T11:48:20;8.40;99.90
41630;DHT22;27322;49.488;8.480;2022-12-20T11:51:16;8.50;99.90
41630;DHT22;27322;49.488;8.480;2022-12-20T11:53:59;8.40;99.90
41630;DHT22;27322;49.488;8.480;2022-12-20T11:56:45;8.40;99.90
41630;DHT22;27322;49.488;8.480;2022-12-20T12:02:03;8.40;99.90
41630;DHT22;27322;49.488;8.480;2022-12-20T12:04:34;8.40;99.90
41630;DHT22;27322;49.488;8.480;2022-12-20T12:09:55;8.40;99.90
41630;DHT22;27322;49.488;8.480;2022-12-20T12:13:14;8.40;99.90
41630;DHT22;27322;49.488;8.480;2022-12-20T12:15:32;8.50;99.90
41630;DHT22;27322;49.488;8.480;2022-12-20T12:18:06;8.40;99.90
41630;DHT22;27322;49.488;8.480;2022-12-20T12:26:35;8.50;99.90
41630;DHT22;27322;49.488;8.480;2022-12-20T12:37:33;8.60;99.90
41630;DHT22;27322;49.488;8.480;2022-12-20T12:45:28;8.60;99.90
41630;DHT22;27322;49.488;8.480;2022-12-20T12:48:06;8.70;99.90
41630;DHT22;27322;49.488;8.480;2022-12-20T12:50:36;8.70;99.90
41630;DHT22;27322;49.488;8.480;2022-12-20T12:55:48;8.80;99.90
41630;DHT22;27322;49.488;8.480;2022-12-20T13:03:19;8.90;99.90
41630;DHT22;27322;49.488;8.480;2022-12-20T13:09:09;8.90;99.90
41630;DHT22;27322;49.488;8.480;2022-12-20T13:16:48;9.00;99.90
41630;DHT22;27322;49.488;8.480;2022-12-20T13:24:51;9.00;99.90
41630;DHT22;27322;49.488;8.480;2022-12-20T13:37:58;9.00;99.90
41630;DHT22;27322;49.488;8.480;2022-12-20T13:40:31;9.00;99.90
41630;DHT22;27322;49.488;8.480;2022-12-20T13:43:10;9.00;99.90
41630;DHT22;27322;49.488;8.480;2022-12-20T13:45:42;9.00;99.90
41630;DHT22;27322;49.488;8.480;2022-12-20T13:48:14;9.00;99.90
41630;DHT22;27322;49.488;8.480;2022-12-20T13:50:48;9.00;99.90
41630;DHT22;27322;49.488;8.480;2022-12-20T13:53:18;9.00;99.90
41630;DHT22;27322;49.488;8.480;2022-12-20T13:55:44;9.00;99.90
41630;DHT22;27322;49.488;8.480;2022-12-20T13:58:22;9.00;99.90
41630;DHT22;27322;49.488;8.480;2022-12-20T14:00:49;9.00;99.90
41630;DHT22;27322;49.488;8.480;2022-12-20T14:03:24;9.00;99.90
41630;DHT22;27322;49.488;8.480;2022-12-20T14:06:11;9.00;99.90
41630;DHT22;27322;49.488;8.480;2022-12-20T14:08:40;9.00;99.90
41630;DHT22;27322;49.488;8.480;2022-12-20T14:11:22;9.00;99.90
41630;DHT22;27322;49.488;8.480;2022-12-20T14:16:18;9.00;99.90
41630;DHT22;27322;49.488;8.480;2022-12-20T14:18:59;8.90;99.90
41630;DHT22;27322;49.488;8.480;2022-12-20T14:21:25;8.90;99.90
41630;DHT22;27322;49.488;8.480;2022-12-20T14:23:54;9.00;99.90
41630;DHT22;27322;49.488;8.480;2022-12-20T14:26:27;8.90;99.90
41630;DHT22;27322;49.488;8.480;2022-12-20T14:28:55;9.00;99.90
41630;DHT22;27322;49.488;8.480;2022-12-20T14:31:28;9.00;99.90
41630;DHT22;27322;49.488;8.480;2022-12-20T14:36:39;9.00;99.90
41630;DHT22;27322;49.488;8.480;2022-12-20T14:39:38;9.00;99.90
41630;DHT22;27322;49.488;8.480;2022-12-20T14:44:32;9.10;99.90
41630;DHT22;27322;49.488;8.480;2022-12-20T14:47:23;9.10;99.90
41630;DHT22;27322;49.488;8.480;2022-12-20T14:50:03;9.10;99.90
41630;DHT22;27322;49.488;8.480;2022-12-20T15:00:24;9.00;99.90
41630;DHT22;27322;49.488;8.480;2022-12-20T15:13:44;9.00;99.90
41630;DHT22;27322;49.488;8.480;2022-12-20T15:18:39;9.00;99.90
41630;DHT22;27322;49.488;8.480;2022-12-20T15:21:35;9.00;99.90
41630;DHT22;27322;49.488;8.480;2022-12-20T15:24:04;9.00;99.90
41630;DHT22;27322;49.488;8.480;2022-12-20T15:26:32;9.00;99.90
41630;DHT22;27322;49.488;8.480;2022-12-20T15:28:58;9.00;99.90
41630;DHT22;27322;49.488;8.480;2022-12-20T15:31:25;9.00;99.90
41630;DHT22;27322;49.488;8.480;2022-12-20T15:33:52;8.90;99.90
41630;DHT22;27322;49.488;8.480;2022-12-20T15:36:24;8.90;99.90
41630;DHT22;27322;49.488;8.480;2022-12-20T15:38:52;9.00;99.90
41630;DHT22;27322;49.488;8.480;2022-12-20T15:41:25;8.90;99.90
41630;DHT22;27322;49.488;8.480;2022-12-20T15:43:55;9.00;99.90
41630;DHT22;27322;49.488;8.480;2022-12-20T15:46:21;9.00;99.90
41630;DHT22;27322;49.488;8.480;2022-12-20T15:48:47;9.00;99.90
41630;DHT22;27322;49.488;8.480;2022-12-20T15:51:33;9.10;99.90
41630;DHT22;27322;49.488;8.480;2022-12-20T15:54:01;9.10;99.90
41630;DHT22;27322;49.488;8.480;2022-12-20T15:56:27;9.10;99.90
41630;DHT22;27322;49.488;8.480;2022-12-20T15:58:53;9.10;99.90
41630;DHT22;27322;49.488;8.480;2022-12-20T16:01:26;9.20;99.90
41630;DHT22;27322;49.488;8.480;2022-12-20T16:03:52;9.20;99.90
41630;DHT22;27322;49.488;8.480;2022-12-20T16:06:18;9.10;99.90
41630;DHT22;27322;49.488;8.480;2022-12-20T16:08:43;9.10;99.90
41630;DHT22;27322;49.488;8.480;2022-12-20T16:13:49;9.10;99.90
41630;DHT22;27322;49.488;8.480;2022-12-20T16:16:21;9.10;99.90
41630;DHT22;27322;49.488;8.480;2022-12-20T16:18:47;9.10;99.90
41630;DHT22;27322;49.488;8.480;2022-12-20T16:21:21;9.00;99.90
41630;DHT22;27322;49.488;8.480;2022-12-20T16:23:48;9.00;99.90
41630;DHT22;27322;49.488;8.480;2022-12-20T16:26:19;9.00;99.90
41630;DHT22;27322;49.488;8.480;2022-12-20T16:28:46;9.00;99.90
41630;DHT22;27322;49.488;8.480;2022-12-20T16:31:39;8.90;99.90
41630;DHT22;27322;49.488;8.480;2022-12-20T16:34:11;8.90;99.90
41630;DHT22;27322;49.488;8.480;2022-12-20T16:36:37;8.90;99.90
41630;DHT22;27322;49.488;8.480;2022-12-20T16:39:03;8.90;99.90
41630;DHT22;27322;49.488;8.480;2022-12-20T16:41:31;8.90;99.90
41630;DHT22;27322;49.488;8.480;2022-12-20T16:43:59;8.90;99.90
41630;DHT22;27322;49.488;8.480;2022-12-20T16:46:28;8.90;99.90
41630;DHT22;27322;49.488;8.480;2022-12-20T16:48:58;8.90;99.90
41630;DHT22;27322;49.488;8.480;2022-12-20T16:56:22;9.00;99.90
41630;DHT22;27322;49.488;8.480;2022-12-20T16:58:48;9.00;99.90
41630;DHT22;27322;49.488;8.480;2022-12-20T17:01:16;9.00;99.90
41630;DHT22;27322;49.488;8.480;2022-12-20T17:03:46;9.00;99.90
41630;DHT22;27322;49.488;8.480;2022-12-20T17:06:13;9.10;99.90
41630;DHT22;27322;49.488;8.480;2022-12-20T17:08:39;9.10;99.90
41630;DHT22;27322;49.488;8.480;2022-12-20T17:13:39;9.10;99.90
41630;DHT22;27322;49.488;8.480;2022-12-20T17:16:05;9.10;99.90
41630;DHT22;27322;49.488;8.480;2022-12-20T17:18:30;9.10;99.90
41630;DHT22;27322;49.488;8.480;2022-12-20T17:20:56;9.10;99.90
41630;DHT22;27322;49.488;8.480;2022-12-20T17:23:22;9.20;99.90
41630;DHT22;27322;49.488;8.480;2022-12-20T17:25:47;9.20;99.90
41630;DHT22;27322;49.488;8.480;2022-12-20T17:28:13;9.20;99.90
41630;DHT22;27322;49.488;8.480;2022-12-20T17:30:38;9.30;99.90
41630;DHT22;27322;49.488;8.480;2022-12-20T17:33:04;9.30;99.90
41630;DHT22;27322;49.488;8.480;2022-12-20T17:35:31;9.30;99.90
41630;DHT22;27322;49.488;8.480;2022-12-20T17:37:57;9.30;99.90
41630;DHT22;27322;49.488;8.480;2022-12-20T17:40:25;9.30;99.90
41630;DHT22;27322;49.488;8.480;2022-12-20T17:42:52;9.30;99.90
41630;DHT22;27322;49.488;8.480;2022-12-20T17:45:22;9.30;99.90
41630;DHT22;27322;49.488;8.480;2022-12-20T17:47:48;9.30;99.90
41630;DHT22;27322;49.488;8.480;2022-12-20T17:50:17;9.20;99.90
41630;DHT22;27322;49.488;8.480;2022-12-20T17:52:47;9.20;99.90
41630;DHT22;27322;49.488;8.480;2022-12-20T17:55:24;9.20;99.90
41630;DHT22;27322;49.488;8.480;2022-12-20T17:57:50;9.20;99.90
41630;DHT22;27322;49.488;8.480;2022-12-20T18:00:28;9.20;99.90
41630;DHT22;27322;49.488;8.480;2022-12-20T18:02:54;9.20;99.90
41630;DHT22;27322;49.488;8.480;2022-12-20T18:05:22;9.20;99.90
41630;DHT22;27322;49.488;8.480;2022-12-20T18:07:52;9.20;99.90
41630;DHT22;27322;49.488;8.480;2022-12-20T18:10:18;9.20;99.90
41630;DHT22;27322;49.488;8.480;2022-12-20T18:12:44;9.10;99.90
41630;DHT22;27322;49.488;8.480;2022-12-20T18:15:10;9.10;99.90
41630;DHT22;27322;49.488;8.480;2022-12-20T18:17:36;9.10;99.90
41630;DHT22;27322;49.488;8.480;2022-12-20T18:20:03;9.20;99.90
41630;DHT22;27322;49.488;8.480;2022-12-20T18:22:29;9.20;99.90
41630;DHT22;27322;49.488;8.480;2022-12-20T18:24:56;9.20;99.90
41630;DHT22;27322;49.488;8.480;2022-12-20T18:27:22;9.20;99.90
41630;DHT22;27322;49.488;8.480;2022-12-20T18:29:47;9.30;99.90
41630;DHT22;27322;49.488;8.480;2022-12-20T18:32:13;9.30;99.90
41630;DHT22;27322;49.488;8.480;2022-12-20T18:34:38;9.30;99.90
41630;DHT22;27322;49.488;8.480;2022-12-20T18:37:04;9.30;99.90
41630;DHT22;27322;49.488;8.480;2022-12-20T18:39:30;9.30;99.90